sensor_id;sensor_type;location;lat;lon;timestamp;pressure;altitude;pressure_sealevel;temperature;humidity
49949;BME280;35840;45.982;8.890;2022-10-18T00:00:01;99709.81;;;14.79;78.76
49949;BME280;35840;45.982;8.890;2022-10-18T00:02:29;99713.22;;;14.79;78.49
49949;BME280;35840;45.982;8.890;2022-10-18T00:04:56;99708.91;;;14.80;78.48
49949;BME280;35840;45.982;8.890;2022-10-18T00:07:23;99711.81;;;14.74;79.28
49949;BME280;35840;45.982;8.890;2022-10-18T00:09:49;99715.75;;;14.65;80.08
49949;BME280;35840;45.982;8.890;2022-10-18T00:12:16;99709.78;;;14.65;79.94
49949;BME280;35840;45.982;8.890;2022-10-18T00:14:43;99714.84;;;14.66;79.13
49949;BME280;35840;45.982;8.890;2022-10-18T00:17:09;99702.75;;;14.67;78.11
49949;BME280;35840;45.982;8.890;2022-10-18T00:19:36;99697.75;;;14.63;78.53
49949;BME280;35840;45.982;8.890;2022-10-18T00:22:02;99693.63;;;14.59;78.67
49949;BME280;35840;45.982;8.890;2022-10-18T00:24:29;99704.06;;;14.58;78.70
49949;BME280;35840;45.982;8.890;2022-10-18T00:26:56;99702.13;;;14.61;78.98
49949;BME280;35840;45.982;8.890;2022-10-18T00:29:22;99686.75;;;14.58;79.09
49949;BME280;35840;45.982;8.890;2022-10-18T00:31:50;99697.75;;;14.63;78.81
49949;BME280;35840;45.982;8.890;2022-10-18T00:34:16;99693.47;;;14.62;79.58
49949;BME280;35840;45.982;8.890;2022-10-18T00:36:43;99686.69;;;14.60;79.23
49949;BME280;35840;45.982;8.890;2022-10-18T00:39:17;99689.34;;;14.58;79.06
49949;BME280;35840;45.982;8.890;2022-10-18T00:41:46;99702.38;;;14.57;79.76
49949;BME280;35840;45.982;8.890;2022-10-18T00:46:41;99693.78;;;14.56;79.69
49949;BME280;35840;45.982;8.890;2022-10-18T00:49:15;99689.53;;;14.55;79.57
49949;BME280;35840;45.982;8.890;2022-10-18T00:51:45;99690.28;;;14.57;79.30
49949;BME280;35840;45.982;8.890;2022-10-18T00:54:14;99686.28;;;14.52;79.35
49949;BME280;35840;45.982;8.890;2022-10-18T00:56:41;99686.19;;;14.53;79.35
49949;BME280;35840;45.982;8.890;2022-10-18T00:59:12;99689.34;;;14.58;78.72
49949;BME280;35840;45.982;8.890;2022-10-18T01:01:39;99679.84;;;14.59;80.15
49949;BME280;35840;45.982;8.890;2022-10-18T01:04:06;99681.25;;;14.49;80.59
49949;BME280;35840;45.982;8.890;2022-10-18T01:06:44;99670.84;;;14.34;80.96
49949;BME280;35840;45.982;8.890;2022-10-18T01:09:27;99676.59;;;14.39;80.26
49949;BME280;35840;45.982;8.890;2022-10-18T01:12:20;99673.13;;;14.40;80.22
49949;BME280;35840;45.982;8.890;2022-10-18T01:15:09;99671.53;;;14.38;79.55
49949;BME280;35840;45.982;8.890;2022-10-18T01:23:12;99663.25;;;14.31;79.66
49949;BME280;35840;45.982;8.890;2022-10-18T01:31:49;99655.41;;;14.33;79.40
49949;BME280;35840;45.982;8.890;2022-10-18T01:34:25;99657.44;;;14.27;77.73
49949;BME280;35840;45.982;8.890;2022-10-18T01:36:55;99659.34;;;14.24;78.58
49949;BME280;35840;45.982;8.890;2022-10-18T01:39:26;99653.91;;;14.28;78.21
49949;BME280;35840;45.982;8.890;2022-10-18T01:41:54;99652.50;;;14.23;78.21
49949;BME280;35840;45.982;8.890;2022-10-18T01:44:24;99650.97;;;14.19;78.17
49949;BME280;35840;45.982;8.890;2022-10-18T01:46:54;99649.75;;;14.10;78.21
49949;BME280;35840;45.982;8.890;2022-10-18T01:49:23;99654.59;;;14.16;78.90
49949;BME280;35840;45.982;8.890;2022-10-18T01:51:49;99653.56;;;14.19;77.84
49949;BME280;35840;45.982;8.890;2022-10-18T01:54:20;99655.50;;;14.15;78.09
49949;BME280;35840;45.982;8.890;2022-10-18T02:05:23;99639.22;;;13.97;80.61
49949;BME280;35840;45.982;8.890;2022-10-18T02:08:37;99644.00;;;14.05;80.89
49949;BME280;35840;45.982;8.890;2022-10-18T02:11:03;99644.31;;;13.99;79.40
49949;BME280;35840;45.982;8.890;2022-10-18T02:13:39;99637.47;;;13.98;80.00
49949;BME280;35840;45.982;8.890;2022-10-18T02:16:10;99627.97;;;13.98;80.26
49949;BME280;35840;45.982;8.890;2022-10-18T02:18:41;99625.31;;;14.00;79.74
49949;BME280;35840;45.982;8.890;2022-10-18T02:21:12;99623.63;;;13.99;79.66
49949;BME280;35840;45.982;8.890;2022-10-18T02:23:43;99623.38;;;14.03;79.26
49949;BME280;35840;45.982;8.890;2022-10-18T02:26:11;99614.06;;;14.01;79.55
49949;BME280;35840;45.982;8.890;2022-10-18T02:28:39;99621.38;;;14.08;79.53
49949;BME280;35840;45.982;8.890;2022-10-18T02:31:26;99622.38;;;14.06;79.71
49949;BME280;35840;45.982;8.890;2022-10-18T02:34:11;99622.53;;;14.03;80.39
49949;BME280;35840;45.982;8.890;2022-10-18T02:36:46;99620.88;;;14.02;79.57
49949;BME280;35840;45.982;8.890;2022-10-18T02:39:23;99607.38;;;13.97;79.33
49949;BME280;35840;45.982;8.890;2022-10-18T02:41:53;99598.94;;;13.93;79.41
49949;BME280;35840;45.982;8.890;2022-10-18T02:44:19;99598.44;;;14.02;78.86
49949;BME280;35840;45.982;8.890;2022-10-18T02:46:47;99590.94;;;13.98;79.14
49949;BME280;35840;45.982;8.890;2022-10-18T02:49:13;99593.69;;;13.94;79.00
49949;BME280;35840;45.982;8.890;2022-10-18T02:51:40;99589.38;;;13.95;79.33
49949;BME280;35840;45.982;8.890;2022-10-18T02:54:07;99599.84;;;13.92;79.98
49949;BME280;35840;45.982;8.890;2022-10-18T02:56:34;99593.78;;;13.77;80.59
49949;BME280;35840;45.982;8.890;2022-10-18T02:59:01;99601.09;;;13.85;79.28
49949;BME280;35840;45.982;8.890;2022-10-18T03:01:29;99601.28;;;13.82;78.77
49949;BME280;35840;45.982;8.890;2022-10-18T03:03:56;99606.88;;;13.74;79.95
49949;BME280;35840;45.982;8.890;2022-10-18T03:06:22;99609.03;;;13.66;80.57
49949;BME280;35840;45.982;8.890;2022-10-18T03:08:49;99604.75;;;13.65;80.97
49949;BME280;35840;45.982;8.890;2022-10-18T03:11:16;99603.50;;;13.72;79.55
49949;BME280;35840;45.982;8.890;2022-10-18T03:13:42;99610.09;;;13.77;79.20
49949;BME280;35840;45.982;8.890;2022-10-18T03:16:09;99609.88;;;13.82;79.48
49949;BME280;35840;45.982;8.890;2022-10-18T03:18:36;99605.88;;;13.76;80.25
49949;BME280;35840;45.982;8.890;2022-10-18T03:21:06;99611.25;;;13.72;80.90
49949;BME280;35840;45.982;8.890;2022-10-18T03:23:33;99608.69;;;13.72;81.41
49949;BME280;35840;45.982;8.890;2022-10-18T03:26:00;99603.44;;;13.73;80.94
49949;BME280;35840;45.982;8.890;2022-10-18T03:28:27;99607.50;;;13.62;81.03
49949;BME280;35840;45.982;8.890;2022-10-18T03:30:59;99606.81;;;13.58;81.00
49949;BME280;35840;45.982;8.890;2022-10-18T03:33:26;99618.84;;;13.59;80.96
49949;BME280;35840;45.982;8.890;2022-10-18T03:35:53;99612.16;;;13.55;81.19
49949;BME280;35840;45.982;8.890;2022-10-18T03:38:20;99611.16;;;13.57;80.40
49949;BME280;35840;45.982;8.890;2022-10-18T03:40:46;99620.97;;;13.51;81.71
49949;BME280;35840;45.982;8.890;2022-10-18T03:43:13;99616.41;;;13.56;81.32
49949;BME280;35840;45.982;8.890;2022-10-18T03:45:40;99611.50;;;13.51;81.13
49949;BME280;35840;45.982;8.890;2022-10-18T03:48:06;99609.00;;;13.50;81.22
49949;BME280;35840;45.982;8.890;2022-10-18T03:50:33;99603.16;;;13.46;80.53
49949;BME280;35840;45.982;8.890;2022-10-18T03:53:00;99618.19;;;13.55;81.40
49949;BME280;35840;45.982;8.890;2022-10-18T03:55:26;99611.16;;;13.57;80.09
49949;BME280;35840;45.982;8.890;2022-10-18T03:57:53;99613.00;;;13.55;80.64
49949;BME280;35840;45.982;8.890;2022-10-18T04:00:20;99610.19;;;13.60;79.83
49949;BME280;35840;45.982;8.890;2022-10-18T04:02:46;99616.16;;;13.60;79.78
49949;BME280;35840;45.982;8.890;2022-10-18T04:05:20;99609.56;;;13.55;80.96
49949;BME280;35840;45.982;8.890;2022-10-18T04:07:49;99607.69;;;13.58;80.82
49949;BME280;35840;45.982;8.890;2022-10-18T04:10:16;99606.00;;;13.57;80.49
49949;BME280;35840;45.982;8.890;2022-10-18T04:12:44;99604.75;;;13.49;80.50
49949;BME280;35840;45.982;8.890;2022-10-18T04:15:10;99606.34;;;13.51;80.88
49949;BME280;35840;45.982;8.890;2022-10-18T04:17:37;99605.41;;;13.52;80.76
49949;BME280;35840;45.982;8.890;2022-10-18T04:20:04;99611.59;;;13.50;80.42
49949;BME280;35840;45.982;8.890;2022-10-18T04:22:31;99610.81;;;13.48;79.77
49949;BME280;35840;45.982;8.890;2022-10-18T04:24:58;99613.56;;;13.45;80.27
49949;BME280;35840;45.982;8.890;2022-10-18T04:27:24;99602.41;;;13.44;80.63
49949;BME280;35840;45.982;8.890;2022-10-18T04:29:51;99604.66;;;13.50;79.43
49949;BME280;35840;45.982;8.890;2022-10-18T04:32:17;99606.34;;;13.51;79.29
49949;BME280;35840;45.982;8.890;2022-10-18T04:34:44;99605.56;;;13.49;79.86
49949;BME280;35840;45.982;8.890;2022-10-18T04:37:11;99602.31;;;13.46;80.40
49949;BME280;35840;45.982;8.890;2022-10-18T04:39:37;99605.00;;;13.44;79.66
49949;BME280;35840;45.982;8.890;2022-10-18T04:42:04;99598.88;;;13.45;78.99
49949;BME280;35840;45.982;8.890;2022-10-18T04:44:30;99604.13;;;13.43;78.60
49949;BME280;35840;45.982;8.890;2022-10-18T04:46:57;99597.47;;;13.39;78.94
49949;BME280;35840;45.982;8.890;2022-10-18T04:49:24;99605.28;;;13.38;79.88
49949;BME280;35840;45.982;8.890;2022-10-18T04:51:50;99609.84;;;13.33;81.53
49949;BME280;35840;45.982;8.890;2022-10-18T04:54:17;99607.72;;;13.23;82.04
49949;BME280;35840;45.982;8.890;2022-10-18T04:56:44;99615.56;;;13.22;81.63
49949;BME280;35840;45.982;8.890;2022-10-18T04:59:10;99615.56;;;13.22;81.38
49949;BME280;35840;45.982;8.890;2022-10-18T05:01:37;99607.56;;;13.26;80.98
49949;BME280;35840;45.982;8.890;2022-10-18T05:04:04;99602.22;;;13.30;80.14
49949;BME280;35840;45.982;8.890;2022-10-18T05:06:30;99609.75;;;13.34;79.60
49949;BME280;35840;45.982;8.890;2022-10-18T05:08:57;99611.66;;;13.31;80.55
49949;BME280;35840;45.982;8.890;2022-10-18T05:11:23;99609.94;;;13.31;80.12
49949;BME280;35840;45.982;8.890;2022-10-18T05:13:50;99604.47;;;13.20;81.15
49949;BME280;35840;45.982;8.890;2022-10-18T05:16:17;99606.53;;;13.13;81.23
49949;BME280;35840;45.982;8.890;2022-10-18T05:18:44;99601.97;;;13.18;80.87
49949;BME280;35840;45.982;8.890;2022-10-18T05:21:11;99606.97;;;13.21;81.18
49949;BME280;35840;45.982;8.890;2022-10-18T05:23:38;99600.38;;;13.16;79.92
49949;BME280;35840;45.982;8.890;2022-10-18T05:26:05;99599.06;;;13.24;80.01
49949;BME280;35840;45.982;8.890;2022-10-18T05:28:33;99599.00;;;13.26;80.22
49949;BME280;35840;45.982;8.890;2022-10-18T05:31:08;99606.22;;;13.19;80.94
49949;BME280;35840;45.982;8.890;2022-10-18T05:33:35;99599.44;;;13.17;80.12
49949;BME280;35840;45.982;8.890;2022-10-18T05:36:02;99603.78;;;13.16;80.13
49949;BME280;35840;45.982;8.890;2022-10-18T05:38:29;99595.69;;;13.06;80.57
49949;BME280;35840;45.982;8.890;2022-10-18T05:40:57;99588.00;;;13.05;80.76
49949;BME280;35840;45.982;8.890;2022-10-18T05:43:28;99587.63;;;13.13;81.00
49949;BME280;35840;45.982;8.890;2022-10-18T05:45:54;99587.56;;;13.14;80.72
49949;BME280;35840;45.982;8.890;2022-10-18T05:48:21;99588.38;;;13.15;80.60
49949;BME280;35840;45.982;8.890;2022-10-18T05:50:48;99581.25;;;13.20;78.87
49949;BME280;35840;45.982;8.890;2022-10-18T05:53:14;99593.47;;;13.16;79.03
49949;BME280;35840;45.982;8.890;2022-10-18T05:56:02;99588.63;;;13.10;79.95
49949;BME280;35840;45.982;8.890;2022-10-18T05:58:29;99595.22;;;13.16;80.81
49949;BME280;35840;45.982;8.890;2022-10-18T06:00:59;99592.72;;;13.14;80.68
49949;BME280;35840;45.982;8.890;2022-10-18T06:03:27;99585.88;;;13.13;80.14
49949;BME280;35840;45.982;8.890;2022-10-18T06:06:07;99585.19;;;13.09;80.90
49949;BME280;35840;45.982;8.890;2022-10-18T06:08:35;99589.06;;;13.18;80.42
49949;BME280;35840;45.982;8.890;2022-10-18T06:11:13;99584.97;;;13.14;81.21
49949;BME280;35840;45.982;8.890;2022-10-18T06:13:41;99591.78;;;13.15;81.05
49949;BME280;35840;45.982;8.890;2022-10-18T06:16:09;99591.03;;;13.13;81.71
49949;BME280;35840;45.982;8.890;2022-10-18T06:18:36;99588.28;;;13.16;81.35
49949;BME280;35840;45.982;8.890;2022-10-18T06:21:04;99586.31;;;13.21;79.93
49949;BME280;35840;45.982;8.890;2022-10-18T06:23:31;99583.22;;;13.15;80.75
49949;BME280;35840;45.982;8.890;2022-10-18T06:26:03;99591.94;;;13.12;81.24
49949;BME280;35840;45.982;8.890;2022-10-18T06:28:32;99587.84;;;13.08;81.01
49949;BME280;35840;45.982;8.890;2022-10-18T06:30:59;99590.34;;;13.09;81.37
49949;BME280;35840;45.982;8.890;2022-10-18T06:33:27;99591.66;;;13.18;81.99
49949;BME280;35840;45.982;8.890;2022-10-18T06:36:00;99591.56;;;13.20;82.33
49949;BME280;35840;45.982;8.890;2022-10-18T06:38:28;99590.88;;;13.16;83.08
49949;BME280;35840;45.982;8.890;2022-10-18T06:40:56;99591.78;;;13.15;82.82
49949;BME280;35840;45.982;8.890;2022-10-18T06:43:23;99597.41;;;13.23;82.52
49949;BME280;35840;45.982;8.890;2022-10-18T06:45:50;99606.75;;;13.26;81.71
49949;BME280;35840;45.982;8.890;2022-10-18T06:48:18;99599.00;;;13.26;82.34
49949;BME280;35840;45.982;8.890;2022-10-18T06:51:09;99608.34;;;13.29;83.13
49949;BME280;35840;45.982;8.890;2022-10-18T06:53:36;99601.25;;;13.32;82.83
49949;BME280;35840;45.982;8.890;2022-10-18T06:56:14;99602.00;;;13.34;83.34
49949;BME280;35840;45.982;8.890;2022-10-18T06:58:41;99605.44;;;13.35;83.66
49949;BME280;35840;45.982;8.890;2022-10-18T07:01:10;99605.13;;;13.41;83.74
49949;BME280;35840;45.982;8.890;2022-10-18T07:03:38;99605.47;;;13.51;84.43
49949;BME280;35840;45.982;8.890;2022-10-18T07:06:06;99605.91;;;13.59;84.44
49949;BME280;35840;45.982;8.890;2022-10-18T07:08:33;99601.53;;;13.61;85.55
49949;BME280;35840;45.982;8.890;2022-10-18T07:11:00;99619.59;;;13.61;85.63
49949;BME280;35840;45.982;8.890;2022-10-18T07:13:28;99617.50;;;13.68;85.86
49949;BME280;35840;45.982;8.890;2022-10-18T07:16:07;99616.53;;;13.70;86.24
49949;BME280;35840;45.982;8.890;2022-10-18T07:18:40;99617.13;;;13.75;85.91
49949;BME280;35840;45.982;8.890;2022-10-18T07:21:09;99612.03;;;13.74;85.70
49949;BME280;35840;45.982;8.890;2022-10-18T07:23:38;99613.63;;;13.76;86.10
49949;BME280;35840;45.982;8.890;2022-10-18T07:26:26;99613.38;;;13.81;85.72
49949;BME280;35840;45.982;8.890;2022-10-18T07:29:03;99611.69;;;13.80;85.70
49949;BME280;35840;45.982;8.890;2022-10-18T07:31:30;99618.88;;;13.91;85.72
49949;BME280;35840;45.982;8.890;2022-10-18T07:33:57;99621.38;;;13.92;85.94
49949;BME280;35840;45.982;8.890;2022-10-18T07:36:24;99618.53;;;13.97;85.74
49949;BME280;35840;45.982;8.890;2022-10-18T07:38:52;99614.97;;;14.00;85.61
49949;BME280;35840;45.982;8.890;2022-10-18T07:41:19;99625.22;;;14.01;85.37
49949;BME280;35840;45.982;8.890;2022-10-18T07:43:48;99619.38;;;13.98;85.49
49949;BME280;35840;45.982;8.890;2022-10-18T07:46:16;99617.38;;;14.03;85.22
49949;BME280;35840;45.982;8.890;2022-10-18T07:48:43;99614.88;;;14.01;84.76
49949;BME280;35840;45.982;8.890;2022-10-18T07:51:11;99606.53;;;13.96;85.26
49949;BME280;35840;45.982;8.890;2022-10-18T07:53:38;99616.28;;;14.07;86.16
49949;BME280;35840;45.982;8.890;2022-10-18T07:56:07;99615.22;;;14.11;86.23
49949;BME280;35840;45.982;8.890;2022-10-18T07:58:36;99612.28;;;14.17;86.28
49949;BME280;35840;45.982;8.890;2022-10-18T08:01:05;99617.22;;;14.22;86.32
49949;BME280;35840;45.982;8.890;2022-10-18T08:03:33;99607.53;;;14.25;85.70
49949;BME280;35840;45.982;8.890;2022-10-18T08:05:59;99598.59;;;14.31;85.88
49949;BME280;35840;45.982;8.890;2022-10-18T08:08:27;99603.50;;;14.36;85.84
49949;BME280;35840;45.982;8.890;2022-10-18T08:10:54;99591.66;;;14.32;85.82
49949;BME280;35840;45.982;8.890;2022-10-18T08:13:21;99595.00;;;14.34;86.36
49949;BME280;35840;45.982;8.890;2022-10-18T08:15:48;99586.41;;;14.33;87.10
49949;BME280;35840;45.982;8.890;2022-10-18T08:18:15;99587.06;;;14.37;86.74
49949;BME280;35840;45.982;8.890;2022-10-18T08:20:44;99584.19;;;14.41;87.03
49949;BME280;35840;45.982;8.890;2022-10-18T08:23:11;99583.97;;;14.46;86.95
49949;BME280;35840;45.982;8.890;2022-10-18T08:25:38;99575.94;;;14.51;88.99
49949;BME280;35840;45.982;8.890;2022-10-18T08:28:06;99572.34;;;14.53;89.09
49949;BME280;35840;45.982;8.890;2022-10-18T08:30:34;99566.88;;;14.58;88.90
49949;BME280;35840;45.982;8.890;2022-10-18T08:33:02;99576.72;;;14.67;87.49
49949;BME280;35840;45.982;8.890;2022-10-18T08:35:29;99571.31;;;14.72;87.84
49949;BME280;35840;45.982;8.890;2022-10-18T08:37:57;99571.84;;;14.77;85.97
49949;BME280;35840;45.982;8.890;2022-10-18T08:40:25;99563.94;;;14.80;86.03
49949;BME280;35840;45.982;8.890;2022-10-18T08:43:04;99559.97;;;14.89;86.72
49949;BME280;35840;45.982;8.890;2022-10-18T08:45:38;99560.34;;;14.97;86.93
49949;BME280;35840;45.982;8.890;2022-10-18T08:48:45;99557.19;;;15.06;86.70
49949;BME280;35840;45.982;8.890;2022-10-18T08:53:58;99551.38;;;15.03;84.49
49949;BME280;35840;45.982;8.890;2022-10-18T08:56:28;99546.34;;;15.00;84.45
49949;BME280;35840;45.982;8.890;2022-10-18T08:58:55;99547.84;;;15.04;83.89
49949;BME280;35840;45.982;8.890;2022-10-18T09:01:45;99551.81;;;15.09;83.65
49949;BME280;35840;45.982;8.890;2022-10-18T09:04:40;99546.09;;;15.19;83.40
49949;BME280;35840;45.982;8.890;2022-10-18T09:07:41;99540.63;;;15.23;83.46
49949;BME280;35840;45.982;8.890;2022-10-18T09:16:07;99539.41;;;15.43;82.24
49949;BME280;35840;45.982;8.890;2022-10-18T09:23:55;99535.91;;;15.44;83.68
49949;BME280;35840;45.982;8.890;2022-10-18T09:26:26;99525.63;;;15.43;83.93
49949;BME280;35840;45.982;8.890;2022-10-18T09:31:49;99518.75;;;15.56;82.54
49949;BME280;35840;45.982;8.890;2022-10-18T09:37:13;99525.31;;;15.62;81.66
49949;BME280;35840;45.982;8.890;2022-10-18T09:39:40;99522.97;;;15.72;80.12
49949;BME280;35840;45.982;8.890;2022-10-18T09:44:59;99517.28;;;15.94;79.43
49949;BME280;35840;45.982;8.890;2022-10-18T09:47:36;99516.50;;;16.06;79.21
49949;BME280;35840;45.982;8.890;2022-10-18T09:50:16;99507.56;;;16.10;79.13
49949;BME280;35840;45.982;8.890;2022-10-18T09:52:52;99507.22;;;16.29;80.50
49949;BME280;35840;45.982;8.890;2022-10-18T09:55:26;99508.59;;;16.35;79.85
49949;BME280;35840;45.982;8.890;2022-10-18T09:57:59;99499.66;;;16.39;78.68
49949;BME280;35840;45.982;8.890;2022-10-18T10:00:34;99502.69;;;16.46;78.36
49949;BME280;35840;45.982;8.890;2022-10-18T10:03:11;99506.66;;;16.51;78.95
49949;BME280;35840;45.982;8.890;2022-10-18T10:05:41;99501.34;;;16.53;78.29
49949;BME280;35840;45.982;8.890;2022-10-18T10:08:08;99502.38;;;16.50;76.40
49949;BME280;35840;45.982;8.890;2022-10-18T10:10:38;99507.66;;;16.49;74.39
49949;BME280;35840;45.982;8.890;2022-10-18T10:13:17;99495.72;;;16.46;73.79
49949;BME280;35840;45.982;8.890;2022-10-18T10:15:56;99498.75;;;16.53;74.07
49949;BME280;35840;45.982;8.890;2022-10-18T10:18:32;99498.53;;;16.56;74.76
49949;BME280;35840;45.982;8.890;2022-10-18T10:21:04;99482.03;;;16.70;76.22
49949;BME280;35840;45.982;8.890;2022-10-18T10:23:38;99480.16;;;16.72;75.63
49949;BME280;35840;45.982;8.890;2022-10-18T10:26:23;99482.25;;;16.80;76.76
49949;BME280;35840;45.982;8.890;2022-10-18T10:28:50;99484.31;;;16.87;76.91
49949;BME280;35840;45.982;8.890;2022-10-18T10:36:24;99475.81;;;16.98;74.79
49949;BME280;35840;45.982;8.890;2022-10-18T10:39:04;99471.31;;;17.00;75.48
49949;BME280;35840;45.982;8.890;2022-10-18T10:41:32;99475.28;;;17.06;75.98
49949;BME280;35840;45.982;8.890;2022-10-18T10:44:01;99462.69;;;17.13;75.59
49949;BME280;35840;45.982;8.890;2022-10-18T10:46:34;99459.22;;;17.25;75.50
49949;BME280;35840;45.982;8.890;2022-10-18T10:49:02;99452.44;;;17.35;74.96
49949;BME280;35840;45.982;8.890;2022-10-18T10:52:16;99454.81;;;17.38;73.60
49949;BME280;35840;45.982;8.890;2022-10-18T10:55:00;99447.31;;;17.47;73.72
49949;BME280;35840;45.982;8.890;2022-10-18T10:57:50;99443.03;;;17.46;75.09
49949;BME280;35840;45.982;8.890;2022-10-18T11:00:40;99433.84;;;17.53;74.68
49949;BME280;35840;45.982;8.890;2022-10-18T11:03:16;99431.75;;;17.58;75.51
49949;BME280;35840;45.982;8.890;2022-10-18T11:05:59;99423.34;;;17.54;73.10
49949;BME280;35840;45.982;8.890;2022-10-18T11:08:32;99423.22;;;17.56;74.95
49949;BME280;35840;45.982;8.890;2022-10-18T11:11:30;99408.25;;;17.60;74.14
49949;BME280;35840;45.982;8.890;2022-10-18T11:16:57;99411.47;;;17.75;73.16
49949;BME280;35840;45.982;8.890;2022-10-18T11:22:50;99397.81;;;17.84;73.82
49949;BME280;35840;45.982;8.890;2022-10-18T11:25:22;99387.28;;;17.85;73.79
49949;BME280;35840;45.982;8.890;2022-10-18T11:45:40;99353.31;;;18.34;69.03
49949;BME280;35840;45.982;8.890;2022-10-18T11:59:41;99332.63;;;18.44;68.38
49949;BME280;35840;45.982;8.890;2022-10-18T12:02:42;99327.66;;;18.52;66.42
49949;BME280;35840;45.982;8.890;2022-10-18T12:05:13;99324.19;;;18.63;66.80
49949;BME280;35840;45.982;8.890;2022-10-18T12:10:36;99303.22;;;18.75;65.68
49949;BME280;35840;45.982;8.890;2022-10-18T12:13:37;99309.34;;;18.86;64.12
49949;BME280;35840;45.982;8.890;2022-10-18T12:16:07;99294.41;;;18.99;63.63
49949;BME280;35840;45.982;8.890;2022-10-18T12:18:44;99297.38;;;19.06;64.63
49949;BME280;35840;45.982;8.890;2022-10-18T12:21:13;99285.78;;;18.99;63.71
49949;BME280;35840;45.982;8.890;2022-10-18T12:24:03;99293.94;;;19.05;65.43
49949;BME280;35840;45.982;8.890;2022-10-18T12:26:33;99288.59;;;19.07;65.36
49949;BME280;35840;45.982;8.890;2022-10-18T12:29:22;99291.41;;;19.15;66.56
49949;BME280;35840;45.982;8.890;2022-10-18T12:31:56;99287.44;;;19.32;63.95
49949;BME280;35840;45.982;8.890;2022-10-18T12:34:49;99277.25;;;19.50;64.62
49949;BME280;35840;45.982;8.890;2022-10-18T12:37:43;99271.91;;;19.52;61.42
49949;BME280;35840;45.982;8.890;2022-10-18T12:42:50;99259.06;;;19.60;63.45
49949;BME280;35840;45.982;8.890;2022-10-18T12:45:30;99261.22;;;19.55;62.56
49949;BME280;35840;45.982;8.890;2022-10-18T12:48:04;99258.38;;;19.58;63.73
49949;BME280;35840;45.982;8.890;2022-10-18T12:55:43;99234.34;;;19.64;65.74
49949;BME280;35840;45.982;8.890;2022-10-18T13:21:39;99210.16;;;20.24;65.31
49949;BME280;35840;45.982;8.890;2022-10-18T13:24:24;99211.16;;;20.33;66.19
49949;BME280;35840;45.982;8.890;2022-10-18T13:32:52;99208.16;;;20.57;62.50
49949;BME280;35840;45.982;8.890;2022-10-18T13:35:42;99201.16;;;20.47;63.21
49949;BME280;35840;45.982;8.890;2022-10-18T13:41:20;99199.00;;;20.72;64.27
49949;BME280;35840;45.982;8.890;2022-10-18T13:49:38;99187.88;;;20.80;62.59
49949;BME280;35840;45.982;8.890;2022-10-18T13:52:46;99189.91;;;20.86;62.38
49949;BME280;35840;45.982;8.890;2022-10-18T13:55:37;99188.41;;;20.93;63.06
49949;BME280;35840;45.982;8.890;2022-10-18T14:06:39;99178.59;;;21.15;61.78
49949;BME280;35840;45.982;8.890;2022-10-18T14:09:23;99179.28;;;21.17;62.83
49949;BME280;35840;45.982;8.890;2022-10-18T14:12:26;99181.34;;;21.13;62.42
49949;BME280;35840;45.982;8.890;2022-10-18T14:15:01;99180.97;;;21.08;62.33
49949;BME280;35840;45.982;8.890;2022-10-18T14:17:39;99187.16;;;21.07;62.76
49949;BME280;35840;45.982;8.890;2022-10-18T14:20:27;99183.16;;;21.13;61.88
49949;BME280;35840;45.982;8.890;2022-10-18T14:23:11;99177.91;;;21.13;61.86
49949;BME280;35840;45.982;8.890;2022-10-18T14:25:40;99178.06;;;21.11;62.28
49949;BME280;35840;45.982;8.890;2022-10-18T14:28:21;99175.16;;;21.14;61.81
49949;BME280;35840;45.982;8.890;2022-10-18T14:31:02;99176.13;;;21.13;62.44
49949;BME280;35840;45.982;8.890;2022-10-18T14:33:44;99173.34;;;21.15;64.43
49949;BME280;35840;45.982;8.890;2022-10-18T14:36:20;99174.88;;;21.18;63.76
49949;BME280;35840;45.982;8.890;2022-10-18T14:38:51;99169.94;;;21.14;61.38
49949;BME280;35840;45.982;8.890;2022-10-18T14:43:46;99168.13;;;21.15;61.80
49949;BME280;35840;45.982;8.890;2022-10-18T14:48:55;99164.31;;;21.09;62.88
49949;BME280;35840;45.982;8.890;2022-10-18T14:51:24;99159.91;;;21.10;64.12
49949;BME280;35840;45.982;8.890;2022-10-18T14:53:52;99156.19;;;21.12;63.41
49949;BME280;35840;45.982;8.890;2022-10-18T14:56:28;99157.16;;;21.11;62.84
49949;BME280;35840;45.982;8.890;2022-10-18T14:58:57;99151.34;;;21.18;61.53
49949;BME280;35840;45.982;8.890;2022-10-18T15:01:28;99159.47;;;21.14;63.37
49949;BME280;35840;45.982;8.890;2022-10-18T15:03:58;99156.03;;;21.14;64.67
49949;BME280;35840;45.982;8.890;2022-10-18T15:06:26;99153.44;;;21.14;64.46
49949;BME280;35840;45.982;8.890;2022-10-18T15:08:56;99154.66;;;21.10;63.70
49949;BME280;35840;45.982;8.890;2022-10-18T15:11:24;99150.25;;;21.10;63.28
49949;BME280;35840;45.982;8.890;2022-10-18T15:13:56;99159.47;;;21.14;64.08
49949;BME280;35840;45.982;8.890;2022-10-18T15:16:27;99147.78;;;21.09;63.80
49949;BME280;35840;45.982;8.890;2022-10-18T15:18:59;99144.22;;;21.00;64.54
49949;BME280;35840;45.982;8.890;2022-10-18T15:21:26;99146.56;;;20.93;65.05
49949;BME280;35840;45.982;8.890;2022-10-18T15:23:53;99145.19;;;20.79;65.24
49949;BME280;35840;45.982;8.890;2022-10-18T15:26:24;99145.09;;;20.71;66.01
49949;BME280;35840;45.982;8.890;2022-10-18T15:28:52;99144.50;;;20.58;67.04
49949;BME280;35840;45.982;8.890;2022-10-18T15:33:48;99144.88;;;20.24;68.35
49949;BME280;35840;45.982;8.890;2022-10-18T15:36:25;99145.16;;;20.11;68.49
49949;BME280;35840;45.982;8.890;2022-10-18T15:38:52;99148.41;;;19.93;69.33
49949;BME280;35840;45.982;8.890;2022-10-18T15:44:24;99146.78;;;19.71;70.77
49949;BME280;35840;45.982;8.890;2022-10-18T15:46:54;99146.75;;;19.61;71.18
49949;BME280;35840;45.982;8.890;2022-10-18T15:52:38;99145.66;;;19.33;71.84
49949;BME280;35840;45.982;8.890;2022-10-18T15:55:43;99143.91;;;19.13;72.69
49949;BME280;35840;45.982;8.890;2022-10-18T16:03:53;99138.66;;;18.70;74.74
49949;BME280;35840;45.982;8.890;2022-10-18T16:06:25;99151.22;;;18.65;75.08